sensor_id;sensor_type;location;lat;lon;timestamp;pressure;altitude;pressure_sealevel;temperature;humidity
33953;BME280;20231;42.710;23.280;2023-07-16T00:01:34;95173.78;;;27.68;63.21
33953;BME280;20231;42.710;23.280;2023-07-16T00:03:59;95177.72;;;27.81;62.98
33953;BME280;20231;42.710;23.280;2023-07-16T00:06:25;95169.19;;;27.79;63.01
33953;BME280;20231;42.710;23.280;2023-07-16T00:08:50;95164.69;;;27.40;63.22
33953;BME280;20231;42.710;23.280;2023-07-16T00:11:15;95174.00;;;27.42;63.63
33953;BME280;20231;42.710;23.280;2023-07-16T00:13:41;95174.06;;;27.52;63.09
33953;BME280;20231;42.710;23.280;2023-07-16T00:16:11;95172.84;;;27.46;63.16
33953;BME280;20231;42.710;23.280;2023-07-16T00:18:37;95175.97;;;27.48;63.58
33953;BME280;20231;42.710;23.280;2023-07-16T00:21:02;95165.09;;;27.42;63.48
33953;BME280;20231;42.710;23.280;2023-07-16T00:23:28;95179.91;;;27.58;63.36
33953;BME280;20231;42.710;23.280;2023-07-16T00:25:53;95166.69;;;27.46;63.24
33953;BME280;20231;42.710;23.280;2023-07-16T00:28:18;95157.72;;;27.42;63.03
33953;BME280;20231;42.710;23.280;2023-07-16T00:30:44;95172.88;;;27.50;62.42
33953;BME280;20231;42.710;23.280;2023-07-16T00:33:09;95176.44;;;27.61;62.70
33953;BME280;20231;42.710;23.280;2023-07-16T00:35:35;95172.06;;;27.42;62.93
33953;BME280;20231;42.710;23.280;2023-07-16T00:38:00;95153.00;;;27.29;63.25
33953;BME280;20231;42.710;23.280;2023-07-16T00:40:25;95166.28;;;27.47;63.24
33953;BME280;20231;42.710;23.280;2023-07-16T00:42:51;95170.09;;;27.40;63.05
33953;BME280;20231;42.710;23.280;2023-07-16T00:45:16;95170.13;;;27.43;63.39
33953;BME280;20231;42.710;23.280;2023-07-16T00:47:43;95176.34;;;27.43;63.20
33953;BME280;20231;42.710;23.280;2023-07-16T00:50:13;95175.22;;;27.51;62.70
33953;BME280;20231;42.710;23.280;2023-07-16T00:52:38;95167.41;;;27.43;62.92
33953;BME280;20231;42.710;23.280;2023-07-16T00:55:05;95177.13;;;27.47;63.10
33953;BME280;20231;42.710;23.280;2023-07-16T00:57:32;95165.09;;;27.42;62.77
33953;BME280;20231;42.710;23.280;2023-07-16T00:59:58;95167.47;;;27.50;62.60
33953;BME280;20231;42.710;23.280;2023-07-16T01:02:23;95168.25;;;27.57;62.66
33953;BME280;20231;42.710;23.280;2023-07-16T01:04:49;95170.66;;;27.62;62.46
33953;BME280;20231;42.710;23.280;2023-07-16T01:07:15;95158.53;;;27.46;62.64
33953;BME280;20231;42.710;23.280;2023-07-16T01:09:42;95169.41;;;27.56;62.46
33953;BME280;20231;42.710;23.280;2023-07-16T01:12:09;95167.84;;;27.48;62.58
33953;BME280;20231;42.710;23.280;2023-07-16T01:14:35;95158.09;;;27.41;62.51
33953;BME280;20231;42.710;23.280;2023-07-16T01:17:05;95155.69;;;27.25;62.20
33953;BME280;20231;42.710;23.280;2023-07-16T01:19:34;95163.09;;;27.35;62.65
33953;BME280;20231;42.710;23.280;2023-07-16T01:30:24;95153.50;;;27.48;59.95
33953;BME280;20231;42.710;23.280;2023-07-16T01:32:52;95172.88;;;27.50;60.52
33953;BME280;20231;42.710;23.280;2023-07-16T01:35:18;95166.31;;;27.54;60.31
33953;BME280;20231;42.710;23.280;2023-07-16T01:37:44;95152.31;;;27.42;60.42
33953;BME280;20231;42.710;23.280;2023-07-16T01:40:10;95173.34;;;27.59;60.26
33953;BME280;20231;42.710;23.280;2023-07-16T01:42:36;95176.69;;;27.42;60.28
33953;BME280;20231;42.710;23.280;2023-07-16T01:45:02;95171.22;;;27.35;60.56
33953;BME280;20231;42.710;23.280;2023-07-16T01:47:48;95175.53;;;27.43;60.48
33953;BME280;20231;42.710;23.280;2023-07-16T01:50:15;95168.59;;;27.49;60.20
33953;BME280;20231;42.710;23.280;2023-07-16T01:52:41;95168.56;;;27.42;60.44
33953;BME280;20231;42.710;23.280;2023-07-16T01:55:06;95164.69;;;27.43;59.99
33953;BME280;20231;42.710;23.280;2023-07-16T01:57:32;95176.00;;;27.52;60.25
33953;BME280;20231;42.710;23.280;2023-07-16T01:59:58;95166.28;;;27.47;60.22
33953;BME280;20231;42.710;23.280;2023-07-16T02:02:23;95175.59;;;27.50;60.01
33953;BME280;20231;42.710;23.280;2023-07-16T02:04:48;95172.53;;;27.58;60.01
33953;BME280;20231;42.710;23.280;2023-07-16T02:07:14;95181.00;;;27.50;59.48
33953;BME280;20231;42.710;23.280;2023-07-16T02:09:39;95172.13;;;27.49;59.43
33953;BME280;20231;42.710;23.280;2023-07-16T02:12:06;95168.94;;;27.41;59.23
33953;BME280;20231;42.710;23.280;2023-07-16T02:14:31;95173.59;;;27.37;59.55
33953;BME280;20231;42.710;23.280;2023-07-16T02:16:57;95166.56;;;27.29;59.18
33953;BME280;20231;42.710;23.280;2023-07-16T02:19:22;95162.22;;;27.17;59.43
33953;BME280;20231;42.710;23.280;2023-07-16T02:21:48;95178.19;;;27.33;59.15
33953;BME280;20231;42.710;23.280;2023-07-16T02:24:13;95164.63;;;27.29;59.12
33953;BME280;20231;42.710;23.280;2023-07-16T02:26:39;95177.81;;;27.31;59.26
33953;BME280;20231;42.710;23.280;2023-07-16T02:29:04;95174.66;;;27.25;59.48
33953;BME280;20231;42.710;23.280;2023-07-16T02:31:33;95173.50;;;27.23;59.08
33953;BME280;20231;42.710;23.280;2023-07-16T02:33:59;95173.00;;;27.10;59.34
33953;BME280;20231;42.710;23.280;2023-07-16T02:36:24;95179.94;;;27.08;59.49
33953;BME280;20231;42.710;23.280;2023-07-16T02:38:50;95188.81;;;27.01;59.90
33953;BME280;20231;42.710;23.280;2023-07-16T02:41:15;95169.38;;;26.96;59.51
33953;BME280;20231;42.710;23.280;2023-07-16T02:43:40;95178.63;;;26.88;59.74
33953;BME280;20231;42.710;23.280;2023-07-16T02:46:06;95189.59;;;27.02;59.25
33953;BME280;20231;42.710;23.280;2023-07-16T02:48:31;95172.41;;;26.87;59.66
33953;BME280;20231;42.710;23.280;2023-07-16T02:50:56;95185.72;;;27.03;59.43
33953;BME280;20231;42.710;23.280;2023-07-16T02:53:22;95178.75;;;27.02;59.55
33953;BME280;20231;42.710;23.280;2023-07-16T02:55:47;95177.09;;;26.90;59.90
33953;BME280;20231;42.710;23.280;2023-07-16T02:58:13;95184.16;;;27.02;59.53
33953;BME280;20231;42.710;23.280;2023-07-16T03:00:38;95194.16;;;26.94;59.71
33953;BME280;20231;42.710;23.280;2023-07-16T03:03:04;95187.56;;;26.92;59.35
33953;BME280;20231;42.710;23.280;2023-07-16T03:05:29;95187.97;;;26.94;59.18
33953;BME280;20231;42.710;23.280;2023-07-16T03:07:54;95198.38;;;26.92;59.39
33953;BME280;20231;42.710;23.280;2023-07-16T03:10:21;95185.25;;;26.94;59.23
33953;BME280;20231;42.710;23.280;2023-07-16T03:12:47;95189.97;;;27.00;59.57
33953;BME280;20231;42.710;23.280;2023-07-16T03:15:12;95197.28;;;26.96;59.44
33953;BME280;20231;42.710;23.280;2023-07-16T03:17:38;95196.56;;;27.03;59.60
33953;BME280;20231;42.710;23.280;2023-07-16T03:20:03;95140.97;;;26.76;59.14
33953;BME280;20231;42.710;23.280;2023-07-16T03:22:30;95185.69;;;26.99;59.26
33953;BME280;20231;42.710;23.280;2023-07-16T03:24:56;95192.28;;;27.02;59.18
33953;BME280;20231;42.710;23.280;2023-07-16T03:27:21;95193.34;;;26.90;59.58
33953;BME280;20231;42.710;23.280;2023-07-16T03:29:47;95201.00;;;26.81;59.85
33953;BME280;20231;42.710;23.280;2023-07-16T03:32:12;95201.09;;;26.92;59.77
33953;BME280;20231;42.710;23.280;2023-07-16T03:34:37;95199.94;;;26.93;59.91
33953;BME280;20231;42.710;23.280;2023-07-16T03:37:03;95199.78;;;26.75;60.38
33953;BME280;20231;42.710;23.280;2023-07-16T03:39:28;95192.44;;;26.72;60.31
33953;BME280;20231;42.710;23.280;2023-07-16T03:41:53;95198.53;;;26.66;60.43
33953;BME280;20231;42.710;23.280;2023-07-16T03:44:19;95200.00;;;26.57;60.53
33953;BME280;20231;42.710;23.280;2023-07-16T03:46:44;95193.00;;;26.52;60.71
33953;BME280;20231;42.710;23.280;2023-07-16T03:49:09;95205.03;;;26.58;60.78
33953;BME280;20231;42.710;23.280;2023-07-16T03:51:35;95215.59;;;26.70;60.52
33953;BME280;20231;42.710;23.280;2023-07-16T03:54:00;95209.41;;;26.69;60.50
33953;BME280;20231;42.710;23.280;2023-07-16T03:56:26;95202.19;;;26.84;60.47
33953;BME280;20231;42.710;23.280;2023-07-16T03:58:51;95216.69;;;27.02;59.83
33953;BME280;20231;42.710;23.280;2023-07-16T04:01:17;95207.31;;;26.96;59.89
33953;BME280;20231;42.710;23.280;2023-07-16T04:03:42;95219.88;;;27.14;59.66
33953;BME280;20231;42.710;23.280;2023-07-16T04:06:09;95220.69;;;27.18;59.68
33953;BME280;20231;42.710;23.280;2023-07-16T04:08:35;95220.66;;;27.15;60.20
33953;BME280;20231;42.710;23.280;2023-07-16T04:11:01;95222.19;;;27.12;60.21
33953;BME280;20231;42.710;23.280;2023-07-16T04:13:26;95202.41;;;27.05;60.01
33953;BME280;20231;42.710;23.280;2023-07-16T04:15:52;95216.22;;;26.96;60.24
33953;BME280;20231;42.710;23.280;2023-07-16T04:18:20;95218.31;;;27.10;60.09
33953;BME280;20231;42.710;23.280;2023-07-16T04:20:46;95226.47;;;27.13;60.30
33953;BME280;20231;42.710;23.280;2023-07-16T04:23:11;95219.16;;;27.21;59.64
33953;BME280;20231;42.710;23.280;2023-07-16T04:25:36;95214.47;;;27.14;59.61
33953;BME280;20231;42.710;23.280;2023-07-16T04:28:02;95221.13;;;27.24;59.52
33953;BME280;20231;42.710;23.280;2023-07-16T04:30:29;95220.34;;;27.23;59.52
33953;BME280;20231;42.710;23.280;2023-07-16T04:32:54;95230.06;;;27.31;59.25
33953;BME280;20231;42.710;23.280;2023-07-16T04:35:19;95220.00;;;27.32;58.66
33953;BME280;20231;42.710;23.280;2023-07-16T04:37:45;95227.75;;;27.30;59.01
33953;BME280;20231;42.710;23.280;2023-07-16T04:40:10;95228.13;;;27.32;58.46
33953;BME280;20231;42.710;23.280;2023-07-16T04:42:36;95234.03;;;27.41;58.46
33953;BME280;20231;42.710;23.280;2023-07-16T04:45:01;95237.00;;;27.25;58.78
33953;BME280;20231;42.710;23.280;2023-07-16T04:47:27;95224.47;;;27.07;58.96
33953;BME280;20231;42.710;23.280;2023-07-16T04:49:53;95232.34;;;27.22;58.67
33953;BME280;20231;42.710;23.280;2023-07-16T04:52:18;95243.91;;;27.16;59.24
33953;BME280;20231;42.710;23.280;2023-07-16T04:54:44;95229.53;;;27.08;59.40
33953;BME280;20231;42.710;23.280;2023-07-16T04:57:09;95241.94;;;27.13;59.23
33953;BME280;20231;42.710;23.280;2023-07-16T04:59:34;95242.34;;;27.15;59.44
33953;BME280;20231;42.710;23.280;2023-07-16T05:02:04;95244.28;;;27.14;59.45
33953;BME280;20231;42.710;23.280;2023-07-16T05:04:29;95240.47;;;27.22;58.77
33953;BME280;20231;42.710;23.280;2023-07-16T05:06:55;95229.59;;;27.15;58.68
33953;BME280;20231;42.710;23.280;2023-07-16T05:09:20;95234.25;;;27.22;58.63
33953;BME280;20231;42.710;23.280;2023-07-16T05:11:46;95237.31;;;27.17;58.95
33953;BME280;20231;42.710;23.280;2023-07-16T05:14:11;95232.34;;;27.26;58.54
33953;BME280;20231;42.710;23.280;2023-07-16T05:16:37;95243.56;;;27.24;58.66
33953;BME280;20231;42.710;23.280;2023-07-16T05:19:02;95236.22;;;27.21;58.63
33953;BME280;20231;42.710;23.280;2023-07-16T05:21:27;95236.69;;;27.34;58.25
33953;BME280;20231;42.710;23.280;2023-07-16T05:23:53;95247.25;;;27.49;57.89
33953;BME280;20231;42.710;23.280;2023-07-16T05:26:18;95248.00;;;27.46;57.95
33953;BME280;20231;42.710;23.280;2023-07-16T05:28:44;95244.91;;;27.47;57.54
33953;BME280;20231;42.710;23.280;2023-07-16T05:31:09;95242.63;;;27.49;57.97
33953;BME280;20231;42.710;23.280;2023-07-16T05:33:34;95246.50;;;27.52;57.79
33953;BME280;20231;42.710;23.280;2023-07-16T05:36:00;95251.91;;;27.48;57.94
33953;BME280;20231;42.710;23.280;2023-07-16T05:38:25;95255.72;;;27.44;57.81
33953;BME280;20231;42.710;23.280;2023-07-16T05:40:50;95249.56;;;27.47;57.92
33953;BME280;20231;42.710;23.280;2023-07-16T05:43:16;95251.91;;;27.48;57.81
33953;BME280;20231;42.710;23.280;2023-07-16T05:45:41;95254.56;;;27.42;57.55
33953;BME280;20231;42.710;23.280;2023-07-16T05:48:07;95262.69;;;27.42;57.69
33953;BME280;20231;42.710;23.280;2023-07-16T05:50:32;95260.03;;;27.48;58.06
33953;BME280;20231;42.710;23.280;2023-07-16T05:52:58;95254.16;;;27.43;57.64
33953;BME280;20231;42.710;23.280;2023-07-16T05:55:23;95260.81;;;27.52;57.79
33953;BME280;20231;42.710;23.280;2023-07-16T05:57:50;95262.00;;;27.55;57.81
33953;BME280;20231;42.710;23.280;2023-07-16T06:00:15;95261.59;;;27.49;57.79
33953;BME280;20231;42.710;23.280;2023-07-16T06:02:41;95261.22;;;27.51;57.72
33953;BME280;20231;42.710;23.280;2023-07-16T06:05:07;95259.69;;;27.53;57.68
33953;BME280;20231;42.710;23.280;2023-07-16T06:07:32;95245.72;;;27.51;57.18
33953;BME280;20231;42.710;23.280;2023-07-16T06:09:58;95262.50;;;27.64;57.13
33953;BME280;20231;42.710;23.280;2023-07-16T06:12:24;95255.84;;;27.58;57.28
33953;BME280;20231;42.710;23.280;2023-07-16T06:14:49;95263.19;;;27.57;56.91
33953;BME280;20231;42.710;23.280;2023-07-16T06:17:15;95260.13;;;27.59;57.10
33953;BME280;20231;42.710;23.280;2023-07-16T06:19:40;95272.97;;;27.69;57.11
33953;BME280;20231;42.710;23.280;2023-07-16T06:22:05;95267.97;;;27.71;56.61
33953;BME280;20231;42.710;23.280;2023-07-16T06:24:32;95264.78;;;27.62;56.58
33953;BME280;20231;42.710;23.280;2023-07-16T06:26:57;95270.69;;;27.71;56.85
33953;BME280;20231;42.710;23.280;2023-07-16T06:29:23;95264.47;;;27.70;56.56
33953;BME280;20231;42.710;23.280;2023-07-16T06:31:56;95251.56;;;27.57;56.68
33953;BME280;20231;42.710;23.280;2023-07-16T06:34:23;95265.25;;;27.71;56.63
33953;BME280;20231;42.710;23.280;2023-07-16T06:36:48;95254.34;;;27.60;56.98
33953;BME280;20231;42.710;23.280;2023-07-16T06:39:14;95265.59;;;27.66;57.14
33953;BME280;20231;42.710;23.280;2023-07-16T06:41:39;95255.16;;;27.68;57.35
33953;BME280;20231;42.710;23.280;2023-07-16T06:44:05;95255.97;;;27.75;57.03
33953;BME280;20231;42.710;23.280;2023-07-16T06:46:30;95257.16;;;27.81;56.43
33953;BME280;20231;42.710;23.280;2023-07-16T06:48:55;95259.88;;;27.81;56.73
33953;BME280;20231;42.710;23.280;2023-07-16T06:51:21;95258.72;;;27.82;56.80
33953;BME280;20231;42.710;23.280;2023-07-16T06:53:47;95253.28;;;27.82;56.83
33953;BME280;20231;42.710;23.280;2023-07-16T06:56:12;95240.09;;;27.81;56.69
33953;BME280;20231;42.710;23.280;2023-07-16T06:58:37;95235.34;;;27.60;57.39
33953;BME280;20231;42.710;23.280;2023-07-16T07:01:03;95262.19;;;27.76;57.40
33953;BME280;20231;42.710;23.280;2023-07-16T07:03:28;95262.19;;;27.79;57.38
33953;BME280;20231;42.710;23.280;2023-07-16T07:05:54;95252.53;;;27.85;57.47
33953;BME280;20231;42.710;23.280;2023-07-16T07:08:19;95252.88;;;27.73;56.93
33953;BME280;20231;42.710;23.280;2023-07-16T07:10:46;95252.03;;;27.69;57.30
33953;BME280;20231;42.710;23.280;2023-07-16T07:13:12;95249.78;;;27.78;57.28
33953;BME280;20231;42.710;23.280;2023-07-16T07:15:37;95245.91;;;27.76;57.18
33953;BME280;20231;42.710;23.280;2023-07-16T07:18:03;95235.78;;;27.73;57.61
33953;BME280;20231;42.710;23.280;2023-07-16T07:20:28;95249.84;;;27.89;57.48
33953;BME280;20231;42.710;23.280;2023-07-16T07:22:53;95261.13;;;27.98;57.40
33953;BME280;20231;42.710;23.280;2023-07-16T07:25:19;95262.75;;;28.09;56.84
33953;BME280;20231;42.710;23.280;2023-07-16T07:27:45;95258.06;;;27.99;56.87
33953;BME280;20231;42.710;23.280;2023-07-16T07:30:10;95252.59;;;27.96;56.88
33953;BME280;20231;42.710;23.280;2023-07-16T07:32:37;95248.31;;;27.91;57.01
33953;BME280;20231;42.710;23.280;2023-07-16T07:35:03;95248.38;;;28.02;56.86
33953;BME280;20231;42.710;23.280;2023-07-16T07:37:29;95242.94;;;27.98;56.71
33953;BME280;20231;42.710;23.280;2023-07-16T07:39:54;95235.16;;;27.93;57.23
33953;BME280;20231;42.710;23.280;2023-07-16T07:42:20;95249.06;;;27.88;58.84
33953;BME280;20231;42.710;23.280;2023-07-16T07:44:45;95251.34;;;27.79;58.67
33953;BME280;20231;42.710;23.280;2023-07-16T07:47:10;95248.72;;;27.93;59.22
33953;BME280;20231;42.710;23.280;2023-07-16T07:49:36;95244.81;;;27.91;58.43
33953;BME280;20231;42.710;23.280;2023-07-16T07:52:01;95252.22;;;27.97;58.59
33953;BME280;20231;42.710;23.280;2023-07-16T07:54:26;95226.59;;;27.91;57.74
33953;BME280;20231;42.710;23.280;2023-07-16T07:56:52;95230.47;;;27.90;59.50
33953;BME280;20231;42.710;23.280;2023-07-16T07:59:17;95231.28;;;27.98;59.28
33953;BME280;20231;42.710;23.280;2023-07-16T08:01:43;95239.75;;;27.86;58.63
33953;BME280;20231;42.710;23.280;2023-07-16T08:04:08;95243.28;;;27.93;58.09
33953;BME280;20231;42.710;23.280;2023-07-16T08:06:33;95230.94;;;28.10;58.51
33953;BME280;20231;42.710;23.280;2023-07-16T08:08:59;95246.50;;;28.16;57.61
33953;BME280;20231;42.710;23.280;2023-07-16T08:11:24;95244.16;;;28.15;58.88
33953;BME280;20231;42.710;23.280;2023-07-16T08:13:50;95246.88;;;28.11;57.55
33953;BME280;20231;42.710;23.280;2023-07-16T08:16:15;95239.06;;;28.10;57.56
33953;BME280;20231;42.710;23.280;2023-07-16T08:18:40;95239.44;;;28.05;57.56
33953;BME280;20231;42.710;23.280;2023-07-16T08:21:06;95249.22;;;28.16;57.20
33953;BME280;20231;42.710;23.280;2023-07-16T08:23:31;95246.88;;;28.11;57.10
33953;BME280;20231;42.710;23.280;2023-07-16T08:25:57;95241.13;;;28.23;57.36
33953;BME280;20231;42.710;23.280;2023-07-16T08:28:22;95235.72;;;28.30;57.00
33953;BME280;20231;42.710;23.280;2023-07-16T08:30:48;95230.66;;;28.28;57.15
33953;BME280;20231;42.710;23.280;2023-07-16T08:33:14;95252.44;;;28.46;56.58
33953;BME280;20231;42.710;23.280;2023-07-16T08:35:41;95251.66;;;28.42;56.80
33953;BME280;20231;42.710;23.280;2023-07-16T08:38:06;95242.34;;;28.39;57.42
33953;BME280;20231;42.710;23.280;2023-07-16T08:40:42;95235.00;;;28.50;57.33
33953;BME280;20231;42.710;23.280;2023-07-16T08:43:08;95231.47;;;28.46;56.67
33953;BME280;20231;42.710;23.280;2023-07-16T08:45:39;95244.34;;;28.63;57.34
33953;BME280;20231;42.710;23.280;2023-07-16T08:48:13;95224.16;;;28.61;56.24
33953;BME280;20231;42.710;23.280;2023-07-16T08:50:41;95236.59;;;28.62;56.65
33953;BME280;20231;42.710;23.280;2023-07-16T08:53:07;95238.53;;;28.68;57.22
33953;BME280;20231;42.710;23.280;2023-07-16T08:55:34;95240.09;;;28.73;57.25
33953;BME280;20231;42.710;23.280;2023-07-16T08:58:02;95225.72;;;28.72;56.01
33953;BME280;20231;42.710;23.280;2023-07-16T09:00:29;95232.31;;;28.75;56.81
33953;BME280;20231;42.710;23.280;2023-07-16T09:02:55;95234.34;;;28.88;57.22
33953;BME280;20231;42.710;23.280;2023-07-16T09:05:21;95227.72;;;28.82;55.39
33953;BME280;20231;42.710;23.280;2023-07-16T09:07:47;95227.34;;;28.84;56.31
33953;BME280;20231;42.710;23.280;2023-07-16T09:10:12;95218.78;;;28.85;55.11
33953;BME280;20231;42.710;23.280;2023-07-16T09:12:42;95223.06;;;28.86;56.04
33953;BME280;20231;42.710;23.280;2023-07-16T09:15:08;95213.34;;;28.78;56.40
33953;BME280;20231;42.710;23.280;2023-07-16T09:17:34;95215.69;;;28.90;55.64
33953;BME280;20231;42.710;23.280;2023-07-16T09:20:02;95220.34;;;28.93;55.59
33953;BME280;20231;42.710;23.280;2023-07-16T09:22:29;95217.63;;;28.90;55.45
33953;BME280;20231;42.710;23.280;2023-07-16T09:24:54;95221.53;;;28.95;56.04
33953;BME280;20231;42.710;23.280;2023-07-16T09:27:28;95214.13;;;28.99;56.02
33953;BME280;20231;42.710;23.280;2023-07-16T09:29:53;95220.38;;;29.10;55.24
33953;BME280;20231;42.710;23.280;2023-07-16T09:32:19;95215.31;;;29.12;54.82
33953;BME280;20231;42.710;23.280;2023-07-16T09:34:45;95219.19;;;29.18;54.79
33953;BME280;20231;42.710;23.280;2023-07-16T09:37:10;95211.81;;;29.15;56.72
33953;BME280;20231;42.710;23.280;2023-07-16T09:39:37;95218.03;;;29.12;56.63
33953;BME280;20231;42.710;23.280;2023-07-16T09:42:03;95204.81;;;29.14;55.91
33953;BME280;20231;42.710;23.280;2023-07-16T09:44:29;95211.44;;;29.10;57.50
33953;BME280;20231;42.710;23.280;2023-07-16T09:46:55;95212.19;;;29.21;55.33
33953;BME280;20231;42.710;23.280;2023-07-16T09:49:20;95207.53;;;29.18;55.49
33953;BME280;20231;42.710;23.280;2023-07-16T09:51:48;95206.38;;;29.26;55.93
33953;BME280;20231;42.710;23.280;2023-07-16T09:54:15;95203.66;;;29.29;53.99
33953;BME280;20231;42.710;23.280;2023-07-16T09:56:46;95205.22;;;29.37;55.09
33953;BME280;20231;42.710;23.280;2023-07-16T09:59:16;95186.56;;;29.18;56.84
33953;BME280;20231;42.710;23.280;2023-07-16T10:01:42;95197.84;;;29.24;57.75
33953;BME280;20231;42.710;23.280;2023-07-16T10:04:17;95199.78;;;29.23;57.50
33953;BME280;20231;42.710;23.280;2023-07-16T10:06:57;95195.13;;;29.27;56.75
33953;BME280;20231;42.710;23.280;2023-07-16T10:12:13;95195.88;;;29.45;57.13
33953;BME280;20231;42.710;23.280;2023-07-16T10:14:47;95197.44;;;29.50;55.37
33953;BME280;20231;42.710;23.280;2023-07-16T10:17:23;95190.06;;;29.50;55.71
33953;BME280;20231;42.710;23.280;2023-07-16T10:19:50;95182.28;;;29.52;54.43
33953;BME280;20231;42.710;23.280;2023-07-16T10:22:17;95192.75;;;29.54;55.79
33953;BME280;20231;42.710;23.280;2023-07-16T10:24:43;95187.31;;;29.50;55.85
33953;BME280;20231;42.710;23.280;2023-07-16T10:27:09;95183.84;;;29.50;55.86
33953;BME280;20231;42.710;23.280;2023-07-16T10:29:34;95171.81;;;29.44;56.08
33953;BME280;20231;42.710;23.280;2023-07-16T10:32:02;95183.84;;;29.50;56.17
33953;BME280;20231;42.710;23.280;2023-07-16T10:34:27;95176.44;;;29.50;56.89
33953;BME280;20231;42.710;23.280;2023-07-16T10:36:53;95176.84;;;29.56;56.34
33953;BME280;20231;42.710;23.280;2023-07-16T10:39:18;95172.53;;;29.62;54.49
33953;BME280;20231;42.710;23.280;2023-07-16T10:41:44;95164.38;;;29.68;55.83
33953;BME280;20231;42.710;23.280;2023-07-16T10:44:13;95174.84;;;29.77;55.23
33953;BME280;20231;42.710;23.280;2023-07-16T10:46:41;95168.97;;;29.78;55.34
33953;BME280;20231;42.710;23.280;2023-07-16T10:49:07;95168.63;;;29.76;54.44
33953;BME280;20231;42.710;23.280;2023-07-16T10:51:33;95167.41;;;29.91;53.58
33953;BME280;20231;42.710;23.280;2023-07-16T10:53:59;95172.41;;;30.03;53.21
33953;BME280;20231;42.710;23.280;2023-07-16T10:56:25;95168.16;;;29.95;53.70
33953;BME280;20231;42.710;23.280;2023-07-16T10:58:50;95163.81;;;30.12;51.49
33953;BME280;20231;42.710;23.280;2023-07-16T11:01:16;95157.19;;;30.16;52.74
33953;BME280;20231;42.710;23.280;2023-07-16T11:03:42;95161.50;;;30.10;53.77
33953;BME280;20231;42.710;23.280;2023-07-16T11:06:11;95157.63;;;30.08;52.18
33953;BME280;20231;42.710;23.280;2023-07-16T11:08:41;95158.34;;;30.15;54.23
33953;BME280;20231;42.710;23.280;2023-07-16T11:11:06;95151.34;;;30.18;53.18
33953;BME280;20231;42.710;23.280;2023-07-16T11:13:32;95151.72;;;30.23;51.09
33953;BME280;20231;42.710;23.280;2023-07-16T11:16:07;95150.53;;;30.28;50.51
33953;BME280;20231;42.710;23.280;2023-07-16T11:18:32;95147.38;;;30.33;51.83
33953;BME280;20231;42.710;23.280;2023-07-16T11:20:59;95142.38;;;30.21;51.51
33953;BME280;20231;42.710;23.280;2023-07-16T11:23:24;95145.81;;;30.35;49.97
33953;BME280;20231;42.710;23.280;2023-07-16T11:25:52;95145.00;;;30.41;49.09
33953;BME280;20231;42.710;23.280;2023-07-16T11:28:17;95141.81;;;30.57;49.66
33953;BME280;20231;42.710;23.280;2023-07-16T11:30:43;95138.75;;;30.48;49.71
33953;BME280;20231;42.710;23.280;2023-07-16T11:33:11;95128.19;;;30.57;49.94
33953;BME280;20231;42.710;23.280;2023-07-16T11:35:38;95136.28;;;30.67;49.36
33953;BME280;20231;42.710;23.280;2023-07-16T11:38:07;95135.09;;;30.68;48.24
33953;BME280;20231;42.710;23.280;2023-07-16T11:40:36;95130.75;;;30.78;47.30
33953;BME280;20231;42.710;23.280;2023-07-16T11:43:09;95121.03;;;30.73;47.77
33953;BME280;20231;42.710;23.280;2023-07-16T11:45:35;95113.25;;;30.75;47.76
33953;BME280;20231;42.710;23.280;2023-07-16T11:48:01;95130.94;;;31.04;48.11
33953;BME280;20231;42.710;23.280;2023-07-16T11:50:28;95138.28;;;31.11;48.86
33953;BME280;20231;42.710;23.280;2023-07-16T11:52:56;95124.75;;;31.00;49.20
33953;BME280;20231;42.710;23.280;2023-07-16T11:55:22;95123.09;;;31.10;47.89
33953;BME280;20231;42.710;23.280;2023-07-16T11:57:48;95118.13;;;31.01;46.68
33953;BME280;20231;42.710;23.280;2023-07-16T12:00:14;95119.94;;;31.14;46.79
33953;BME280;20231;42.710;23.280;2023-07-16T12:02:39;95113.28;;;31.19;45.96
33953;BME280;20231;42.710;23.280;2023-07-16T12:05:05;95112.81;;;31.24;44.30
33953;BME280;20231;42.710;23.280;2023-07-16T12:07:33;95117.50;;;31.23;44.35
33953;BME280;20231;42.710;23.280;2023-07-16T12:09:59;95118.25;;;31.27;45.35
33953;BME280;20231;42.710;23.280;2023-07-16T12:12:24;95108.53;;;31.23;42.92
33953;BME280;20231;42.710;23.280;2023-07-16T12:14:50;95106.56;;;31.27;42.51
33953;BME280;20231;42.710;23.280;2023-07-16T12:17:15;95118.19;;;31.34;42.62
33953;BME280;20231;42.710;23.280;2023-07-16T12:19:40;95105.25;;;31.38;42.48
33953;BME280;20231;42.710;23.280;2023-07-16T12:22:06;95099.28;;;31.54;42.96
33953;BME280;20231;42.710;23.280;2023-07-16T12:24:31;95116.69;;;31.67;43.46
33953;BME280;20231;42.710;23.280;2023-07-16T12:26:57;95102.53;;;31.75;41.64
33953;BME280;20231;42.710;23.280;2023-07-16T12:29:22;95098.50;;;31.87;40.77
33953;BME280;20231;42.710;23.280;2023-07-16T12:31:48;95107.69;;;31.99;41.08
33953;BME280;20231;42.710;23.280;2023-07-16T12:34:14;95091.66;;;32.05;39.69
33953;BME280;20231;42.710;23.280;2023-07-16T12:36:39;95091.31;;;32.29;38.47
33953;BME280;20231;42.710;23.280;2023-07-16T12:39:05;95099.25;;;32.47;40.24
33953;BME280;20231;42.710;23.280;2023-07-16T12:41:30;95102.34;;;32.49;40.75
33953;BME280;20231;42.710;23.280;2023-07-16T12:43:56;95083.16;;;32.56;41.03
33953;BME280;20231;42.710;23.280;2023-07-16T12:46:21;95097.81;;;32.65;40.86
33953;BME280;20231;42.710;23.280;2023-07-16T12:48:49;95089.56;;;32.68;40.64
33953;BME280;20231;42.710;23.280;2023-07-16T12:51:15;95090.28;;;32.72;40.32
33953;BME280;20231;42.710;23.280;2023-07-16T12:53:40;95086.75;;;32.72;40.68
33953;BME280;20231;42.710;23.280;2023-07-16T12:56:06;95073.34;;;32.81;41.18